Time;durP1;ratioP1;P1;durP2;ratioP2;P2;SDS_P1;SDS_P2;PMS_P1;PMS_P2;Temp;Humidity;BMP_temperature;BMP_pressure;BME280_temperature;BME280_humidity;BME280_pressure;Samples;Min_cycle;Max_cycle;Signal;HPM_P1;HPM_P2
2022/01/20 00:08:29;;;;;;;0.20;0.20;;;7.50;99.90;;;;;;25467024;23;20353;-74
2022/01/20 00:28:59;;;;;;;0.20;0.00;;;7.40;99.90;;;;;;25465025;23;20269;-73
2022/01/20 00:39:04;;;;;;;0.20;0.07;;;7.30;99.90;;;;;;25438440;23;20230;-71
2022/01/20 00:49:09;;;;;;;0.20;0.03;;;7.30;99.90;;;;;;25437268;23;20237;-73
2022/01/20 00:59:13;;;;;;;0.20;0.10;;;7.30;99.90;;;;;;25515323;23;20282;-64
2022/01/20 01:09:18;;;;;;;0.20;0.10;;;7.30;99.90;;;;;;25588090;23;20499;-65
2022/01/20 01:30:02;;;;;;;0.20;0.07;;;7.50;99.90;;;;;;25586908;23;20591;-72
2022/01/20 01:40:09;;;;;;;0.20;0.10;;;7.40;99.90;;;;;;25585039;23;20632;-73
2022/01/20 01:50:15;;;;;;;0.20;0.20;;;7.30;99.90;;;;;;25586421;23;20244;-73
2022/01/20 02:00:20;;;;;;;0.20;0.00;;;7.20;99.90;;;;;;25585245;23;20695;-73
2022/01/20 02:20:48;;;;;;;0.20;0.10;;;7.20;99.90;;;;;;25585505;23;20269;-74
2022/01/20 02:30:52;;;;;;;0.20;0.03;;;7.10;99.90;;;;;;25560439;23;20198;-73
2022/01/20 02:51:19;;;;;;;0.20;0.20;;;6.80;99.90;;;;;;25585354;23;20352;-72
2022/01/20 03:01:24;;;;;;;1.13;1.13;;;6.60;99.90;;;;;;25584744;23;20575;-73
2022/01/20 03:11:28;;;;;;;1.30;0.73;;;6.50;99.90;;;;;;25589459;23;20221;-74
2022/01/20 03:21:33;;;;;;;0.20;0.03;;;6.50;99.90;;;;;;25592842;23;20245;-73
2022/01/20 03:31:38;;;;;;;0.33;0.30;;;6.50;99.90;;;;;;25591301;23;20193;-73
2022/01/20 03:41:43;;;;;;;0.20;0.00;;;6.50;99.90;;;;;;25592946;23;20663;-73
2022/01/20 03:51:48;;;;;;;0.20;0.10;;;6.70;99.90;;;;;;25591402;23;20695;-74
2022/01/20 04:01:53;;;;;;;0.20;0.00;;;6.70;99.90;;;;;;25590270;23;20655;-72
2022/01/20 04:11:57;;;;;;;0.20;0.00;;;6.60;99.90;;;;;;25589928;23;20190;-72
2022/01/20 04:22:04;;;;;;;0.20;0.00;;;6.60;99.90;;;;;;25589413;23;20542;-66
2022/01/20 04:32:08;;;;;;;0.80;0.80;;;6.50;99.90;;;;;;25588711;23;20273;-65
2022/01/20 04:42:13;;;;;;;0.20;0.10;;;6.40;99.90;;;;;;25588855;23;20249;-66
2022/01/20 05:02:40;;;;;;;0.37;0.37;;;6.20;99.90;;;;;;25586857;23;20197;-66
2022/01/20 05:13:04;;;;;;;0.20;0.00;;;6.00;99.90;;;;;;25562033;23;20280;-64
2022/01/20 05:23:09;;;;;;;0.70;0.57;;;6.10;99.90;;;;;;25587686;23;20249;-66
2022/01/20 05:33:13;;;;;;;0.20;0.10;;;6.10;99.90;;;;;;25584663;23;20265;-65
2022/01/20 05:43:18;;;;;;;0.20;0.00;;;6.20;99.90;;;;;;25585132;23;20273;-66
2022/01/20 05:53:22;;;;;;;0.20;0.10;;;6.20;99.90;;;;;;25587271;23;20241;-66
2022/01/20 06:03:40;;;;;;;0.20;0.00;;;6.20;99.90;;;;;;25579951;23;20774;-66
2022/01/20 06:13:45;;;;;;;0.20;0.00;;;6.00;99.90;;;;;;25555272;23;20206;-66
2022/01/20 06:23:52;;;;;;;0.20;0.10;;;6.30;99.90;;;;;;25584931;23;20192;-71
2022/01/20 06:33:56;;;;;;;0.20;0.10;;;6.50;99.90;;;;;;25552357;23;20224;-71
2022/01/20 06:44:01;;;;;;;0.20;0.10;;;6.30;99.90;;;;;;25586795;23;20189;-71
2022/01/20 06:54:05;;;;;;;0.20;0.00;;;6.20;99.90;;;;;;25590790;23;20198;-72
2022/01/20 07:04:13;;;;;;;0.20;0.00;;;6.40;99.90;;;;;;25585151;23;20567;-68
2022/01/20 07:14:17;;;;;;;0.20;0.00;;;6.50;99.90;;;;;;25559843;23;20198;-71
2022/01/20 07:24:22;;;;;;;0.20;0.10;;;6.30;99.90;;;;;;25592024;23;20252;-72
2022/01/20 07:34:26;;;;;;;0.20;0.20;;;6.40;99.90;;;;;;25590672;23;20193;-71
2022/01/20 07:44:31;;;;;;;0.20;0.00;;;6.70;99.90;;;;;;25588198;23;20178;-72
2022/01/20 07:54:35;;;;;;;1.17;1.07;;;7.10;99.90;;;;;;25587040;23;20667;-72
2022/01/20 08:04:40;;;;;;;0.20;0.10;;;7.10;99.90;;;;;;25586584;23;20277;-72
2022/01/20 08:14:44;;;;;;;0.27;0.27;;;7.30;99.90;;;;;;25585551;23;20698;-70
2022/01/20 08:24:53;;;;;;;0.20;0.10;;;7.60;99.90;;;;;;25583853;23;20190;-73
2022/01/20 08:34:57;;;;;;;0.20;0.10;;;7.80;99.90;;;;;;25588615;23;20241;-70
2022/01/20 08:45:02;;;;;;;0.20;0.20;;;8.10;99.90;;;;;;25584200;23;20250;-70
2022/01/20 08:55:09;;;;;;;0.20;0.10;;;8.60;99.90;;;;;;25579283;23;20205;-66
2022/01/20 09:05:14;;;;;;;0.20;0.00;;;8.90;99.90;;;;;;25584426;23;20522;-65
2022/01/20 09:15:31;;;;;;;0.20;0.10;;;9.00;99.90;;;;;;25559614;23;20289;-65
2022/01/20 09:25:38;;;;;;;0.20;0.10;;;9.10;99.90;;;;;;25585196;23;20178;-64
2022/01/20 09:35:44;;;;;;;0.20;0.10;;;9.50;99.90;;;;;;25584981;23;20212;-63
2022/01/20 09:45:55;;;;;;;0.20;0.10;;;9.80;99.90;;;;;;25583357;23;20174;-65
2022/01/20 09:55:59;;;;;;;0.20;0.10;;;10.00;99.90;;;;;;25581409;23;20586;-65
2022/01/20 10:06:06;;;;;;;0.87;0.87;;;10.10;99.90;;;;;;25580711;23;20233;-65
2022/01/20 10:16:11;;;;;;;0.20;0.10;;;10.30;99.90;;;;;;25582155;23;20190;-65
2022/01/20 10:26:18;;;;;;;0.20;0.00;;;11.00;99.90;;;;;;25561632;23;20562;-64
2022/01/20 10:36:23;;;;;;;0.20;0.10;;;12.00;99.90;;;;;;25589323;23;20260;-66
2022/01/20 10:46:28;;;;;;;0.20;0.10;;;12.90;99.90;;;;;;25586334;23;20201;-65
2022/01/20 10:56:32;;;;;;;0.20;0.10;;;13.40;99.90;;;;;;25588286;23;20476;-65
2022/01/20 11:06:37;;;;;;;0.20;0.10;;;14.00;99.90;;;;;;25590537;23;20186;-65
2022/01/20 11:16:42;;;;;;;0.20;0.10;;;15.20;99.90;;;;;;25587800;23;20273;-66
2022/01/20 11:26:57;;;;;;;0.20;0.10;;;14.90;99.90;;;;;;25587502;23;20198;-65
2022/01/20 11:37:08;;;;;;;1.60;0.27;;;15.00;99.90;;;;;;25561488;23;20228;-66
2022/01/20 11:47:33;;;;;;;0.20;0.00;;;15.60;99.90;;;;;;25591791;23;20190;-64
2022/01/20 11:57:37;;;;;;;0.20;0.00;;;16.20;99.90;;;;;;25587025;23;20273;-76
2022/01/20 12:07:43;;;;;;;0.20;0.10;;;16.30;99.90;;;;;;25586531;23;20301;-69
2022/01/20 12:17:50;;;;;;;0.20;0.10;;;16.90;99.90;;;;;;25584611;23;20170;-67
2022/01/20 12:28:05;;;;;;;0.20;0.10;;;16.60;99.90;;;;;;25559370;23;20194;-67
2022/01/20 12:38:23;;;;;;;0.20;0.00;;;17.30;99.90;;;;;;25557667;23;20225;-66
2022/01/20 12:48:28;;;;;;;0.40;0.30;;;17.30;99.90;;;;;;25581751;23;20228;-67
2022/01/20 12:58:32;;;;;;;0.20;0.20;;;17.50;99.90;;;;;;25557404;23;20250;-66
2022/01/20 13:08:40;;;;;;;0.20;0.20;;;18.00;99.90;;;;;;25583135;23;20583;-68
2022/01/20 13:18:53;;;;;;;0.40;0.40;;;18.60;99.90;;;;;;25578777;23;20551;-67
2022/01/20 13:29:06;;;;;;;0.20;0.10;;;18.50;99.90;;;;;;25579151;23;20269;-69
2022/01/20 13:39:15;;;;;;;0.20;0.10;;;18.40;99.90;;;;;;25547994;23;20265;-66
2022/01/20 13:49:22;;;;;;;0.20;0.10;;;18.00;99.90;;;;;;25582998;23;20273;-67
2022/01/20 13:59:26;;;;;;;0.20;0.10;;;18.10;99.90;;;;;;25583011;23;20285;-67
2022/01/20 14:09:34;;;;;;;0.20;0.10;;;18.10;99.90;;;;;;25583139;23;20315;-71
2022/01/20 14:19:43;;;;;;;0.20;0.00;;;18.60;99.90;;;;;;25582744;23;20640;-69
2022/01/20 14:29:48;;;;;;;0.20;0.10;;;18.30;99.90;;;;;;25556964;23;20654;-68
2022/01/20 14:39:52;;;;;;;0.20;0.10;;;19.00;99.90;;;;;;25555236;23;20177;-70
2022/01/20 14:49:57;;;;;;;0.20;0.10;;;18.70;99.90;;;;;;25583270;23;20497;-71
2022/01/20 15:00:02;;;;;;;0.20;0.00;;;18.40;99.90;;;;;;25580628;23;20209;-70
2022/01/20 15:10:09;;;;;;;0.20;0.10;;;17.80;99.90;;;;;;25588637;23;20632;-71
2022/01/20 15:20:13;;;;;;;0.40;0.30;;;17.50;99.90;;;;;;25588244;23;20201;-69
2022/01/20 15:30:18;;;;;;;0.20;0.10;;;17.30;99.90;;;;;;25561711;23;20201;-71
2022/01/20 15:40:22;;;;;;;0.20;0.10;;;16.80;99.90;;;;;;25587430;23;20273;-71
2022/01/20 15:50:27;;;;;;;0.20;0.10;;;16.40;99.90;;;;;;25583361;23;20214;-72
2022/01/20 16:00:33;;;;;;;0.20;0.10;;;15.40;99.90;;;;;;25555799;23;20206;-73
2022/01/20 16:10:38;;;;;;;0.20;0.00;;;15.00;99.90;;;;;;25585156;23;20190;-72
2022/01/20 16:20:43;;;;;;;0.20;0.10;;;14.00;99.90;;;;;;25585866;23;20181;-71
2022/01/20 16:30:48;;;;;;;0.20;0.10;;;13.30;99.90;;;;;;25583586;23;20218;-70
2022/01/20 16:40:52;;;;;;;0.20;0.10;;;12.80;99.90;;;;;;25582937;23;20154;-71
2022/01/20 16:50:58;;;;;;;0.20;0.10;;;12.40;99.90;;;;;;25583993;23;20198;-66
2022/01/20 17:01:03;;;;;;;0.20;0.10;;;12.00;99.90;;;;;;25567698;23;20316;-66
2022/01/20 17:11:08;;;;;;;0.20;0.10;;;11.20;99.90;;;;;;25583711;23;20186;-66
2022/01/20 17:21:12;;;;;;;0.20;0.10;;;10.80;99.90;;;;;;25554772;23;20257;-66
2022/01/20 17:31:19;;;;;;;0.20;0.10;;;10.30;99.90;;;;;;25585409;23;20562;-81
2022/01/20 17:41:23;;;;;;;0.20;0.17;;;9.80;99.90;;;;;;25587392;23;20170;-79
2022/01/20 17:51:28;;;;;;;0.20;0.00;;;9.50;99.90;;;;;;25583553;23;20276;-80
2022/01/20 18:01:32;;;;;;;0.20;0.00;;;9.20;99.90;;;;;;25505851;23;20203;-80
2022/01/20 18:11:44;;;;;;;0.20;0.10;;;9.10;99.90;;;;;;25463278;23;20191;-77
2022/01/20 18:21:47;;;;;;;0.63;0.63;;;9.00;99.90;;;;;;25459970;23;20166;-66
2022/01/20 18:31:53;;;;;;;2.93;2.73;;;8.80;99.90;;;;;;25459952;23;20273;-66
2022/01/20 18:42:01;;;;;;;0.20;0.00;;;8.40;99.90;;;;;;25415666;23;20201;-68
2022/01/20 18:52:08;;;;;;;0.20;0.10;;;8.10;99.90;;;;;;25466710;23;20199;-70
2022/01/20 19:02:12;;;;;;;0.20;0.00;;;8.20;99.90;;;;;;25527728;23;20634;-68
2022/01/20 19:12:18;;;;;;;0.20;0.10;;;8.20;99.90;;;;;;25584807;23;20194;-67
2022/01/20 19:22:24;;;;;;;0.20;0.00;;;9.40;99.90;;;;;;25584949;23;20238;-67
2022/01/20 19:32:30;;;;;;;1.27;1.27;;;9.20;99.90;;;;;;25557874;23;20270;-67
2022/01/20 19:42:33;;;;;;;0.20;0.10;;;9.30;99.90;;;;;;25583649;23;20205;-67
2022/01/20 19:52:39;;;;;;;0.20;0.10;;;9.20;99.90;;;;;;25584510;23;20304;-68
2022/01/20 20:02:46;;;;;;;0.20;0.10;;;9.20;99.90;;;;;;25581992;23;20280;-67
2022/01/20 20:12:52;;;;;;;0.73;0.73;;;9.10;99.90;;;;;;25583651;23;20190;-67
2022/01/20 20:22:55;;;;;;;0.20;0.10;;;9.20;99.90;;;;;;25583152;23;20332;-70
2022/01/20 20:33:01;;;;;;;0.20;0.10;;;9.30;99.90;;;;;;25582779;23;20560;-67
2022/01/20 20:43:04;;;;;;;0.20;0.10;;;9.20;99.90;;;;;;25557048;23;20174;-67
2022/01/20 20:53:10;;;;;;;0.20;0.10;;;8.90;99.90;;;;;;25584190;23;20261;-77
2022/01/20 21:03:13;;;;;;;5.20;2.97;;;8.60;99.90;;;;;;25555228;23;20194;-65
2022/01/20 21:13:19;;;;;;;0.20;0.00;;;8.70;99.90;;;;;;25555405;23;20224;-65
2022/01/20 21:23:22;;;;;;;0.20;0.10;;;8.60;99.90;;;;;;25580731;23;20246;-65
2022/01/20 21:33:35;;;;;;;0.20;0.00;;;8.70;99.90;;;;;;25579720;23;20240;-64
2022/01/20 21:43:39;;;;;;;0.20;0.03;;;8.60;99.90;;;;;;25579384;23;20241;-65
2022/01/20 21:53:45;;;;;;;0.33;0.27;;;8.50;99.90;;;;;;25578159;23;20245;-64
2022/01/20 22:03:49;;;;;;;0.87;0.87;;;8.00;99.90;;;;;;25577851;23;20312;-74
2022/01/20 22:13:54;;;;;;;0.20;0.10;;;7.40;99.90;;;;;;25583996;23;20573;-76
2022/01/20 22:23:58;;;;;;;0.20;0.10;;;7.60;99.90;;;;;;25593818;23;20584;-76
2022/01/20 22:34:03;;;;;;;0.20;0.00;;;7.50;99.90;;;;;;25592915;23;20285;-76
2022/01/20 22:44:07;;;;;;;0.20;0.00;;;7.20;99.90;;;;;;25593578;23;20648;-68
2022/01/20 22:54:13;;;;;;;0.47;0.47;;;7.10;99.90;;;;;;25592949;23;20276;-67
2022/01/20 23:04:17;;;;;;;0.50;0.50;;;7.20;99.90;;;;;;25591117;23;20201;-66
2022/01/20 23:14:23;;;;;;;0.20;0.10;;;7.30;99.90;;;;;;25590626;23;20379;-66
2022/01/20 23:24:28;;;;;;;4.93;2.53;;;7.20;99.90;;;;;;25590062;23;20181;-69
2022/01/20 23:34:33;;;;;;;0.20;0.10;;;7.20;99.90;;;;;;25584594;23;20659;-71
2022/01/20 23:44:52;;;;;;;11.20;10.43;;;7.20;99.90;;;;;;25584334;23;20261;-71
2022/01/20 23:54:57;;;;;;;0.23;0.17;;;7.00;99.90;;;;;;25558803;23;20215;-71
